Aviation Digital Data Service (ADDS)

Output produced by METARs form (0944 UTC 31 March 2015)
found at http://aviationweather.gov/adds/metars/
 
KJFK 310842Z 3109/0112 29010KT P6SM BKN100 
     FM311500 25008KT P6SM SCT040 SCT150 
     FM311800 22006KT P6SM SCT040 BKN100 
     FM312000 VRB05KT 5SM -RA BR BKN015 OVC050 
     FM010000 03009KT 2SM -RASN BR OVC010 
     FM010300 34010KT P6SM SCT010 OVC040 
     FM010700 33014KT P6SM BKN250